sensor_id;sensor_type;location;lat;lon;timestamp;temperature;humidity
12708;DHT22;6418;50.824;4.718;2024-01-30T00:00:07;9.30;99.90
12708;DHT22;6418;50.824;4.718;2024-01-30T00:02:35;9.40;99.90
12708;DHT22;6418;50.824;4.718;2024-01-30T00:05:02;9.30;99.90
12708;DHT22;6418;50.824;4.718;2024-01-30T00:07:30;9.30;99.90
12708;DHT22;6418;50.824;4.718;2024-01-30T00:09:58;9.30;99.90
12708;DHT22;6418;50.824;4.718;2024-01-30T00:12:25;9.30;99.90
12708;DHT22;6418;50.824;4.718;2024-01-30T00:14:52;9.30;99.90
12708;DHT22;6418;50.824;4.718;2024-01-30T00:17:19;9.30;99.90
12708;DHT22;6418;50.824;4.718;2024-01-30T00:19:47;9.30;99.90
12708;DHT22;6418;50.824;4.718;2024-01-30T00:22:14;9.30;99.90
12708;DHT22;6418;50.824;4.718;2024-01-30T00:24:41;9.30;99.90
12708;DHT22;6418;50.824;4.718;2024-01-30T00:27:09;9.30;99.90
12708;DHT22;6418;50.824;4.718;2024-01-30T00:29:36;9.30;99.90
12708;DHT22;6418;50.824;4.718;2024-01-30T00:32:04;9.30;99.90
12708;DHT22;6418;50.824;4.718;2024-01-30T00:34:31;9.30;99.90
12708;DHT22;6418;50.824;4.718;2024-01-30T00:36:58;9.30;99.90
12708;DHT22;6418;50.824;4.718;2024-01-30T00:39:25;9.30;99.90
12708;DHT22;6418;50.824;4.718;2024-01-30T00:41:54;9.30;99.90
12708;DHT22;6418;50.824;4.718;2024-01-30T00:44:23;9.40;99.90
12708;DHT22;6418;50.824;4.718;2024-01-30T00:46:50;9.40;99.90
12708;DHT22;6418;50.824;4.718;2024-01-30T00:49:16;9.40;99.90
12708;DHT22;6418;50.824;4.718;2024-01-30T00:51:43;9.40;99.90
12708;DHT22;6418;50.824;4.718;2024-01-30T00:54:10;9.40;99.90
12708;DHT22;6418;50.824;4.718;2024-01-30T00:56:37;9.40;99.90
12708;DHT22;6418;50.824;4.718;2024-01-30T00:59:04;9.40;99.90
12708;DHT22;6418;50.824;4.718;2024-01-30T01:01:32;9.40;99.90
12708;DHT22;6418;50.824;4.718;2024-01-30T01:03:59;9.40;99.90
12708;DHT22;6418;50.824;4.718;2024-01-30T01:06:26;9.50;99.90
12708;DHT22;6418;50.824;4.718;2024-01-30T01:08:53;9.50;99.90
12708;DHT22;6418;50.824;4.718;2024-01-30T01:11:20;9.50;99.90
12708;DHT22;6418;50.824;4.718;2024-01-30T01:13:47;9.60;99.90
12708;DHT22;6418;50.824;4.718;2024-01-30T01:16:14;9.60;99.90
12708;DHT22;6418;50.824;4.718;2024-01-30T01:18:43;9.60;99.90
12708;DHT22;6418;50.824;4.718;2024-01-30T01:21:10;9.60;99.90
12708;DHT22;6418;50.824;4.718;2024-01-30T01:23:36;9.60;99.90
12708;DHT22;6418;50.824;4.718;2024-01-30T01:26:04;9.60;99.90
12708;DHT22;6418;50.824;4.718;2024-01-30T01:28:31;9.70;99.90
12708;DHT22;6418;50.824;4.718;2024-01-30T01:30:58;9.70;99.90
12708;DHT22;6418;50.824;4.718;2024-01-30T01:33:30;9.70;99.90
12708;DHT22;6418;50.824;4.718;2024-01-30T01:36:00;9.70;99.90
12708;DHT22;6418;50.824;4.718;2024-01-30T01:38:28;9.70;99.90
12708;DHT22;6418;50.824;4.718;2024-01-30T01:40:55;9.70;99.90
12708;DHT22;6418;50.824;4.718;2024-01-30T01:43:21;9.70;99.90
12708;DHT22;6418;50.824;4.718;2024-01-30T01:45:48;9.70;99.90
12708;DHT22;6418;50.824;4.718;2024-01-30T01:48:15;9.70;99.90
12708;DHT22;6418;50.824;4.718;2024-01-30T01:50:43;9.70;99.90
12708;DHT22;6418;50.824;4.718;2024-01-30T01:53:12;9.70;99.90
12708;DHT22;6418;50.824;4.718;2024-01-30T01:55:39;9.70;99.90
12708;DHT22;6418;50.824;4.718;2024-01-30T01:58:07;9.70;99.90
12708;DHT22;6418;50.824;4.718;2024-01-30T02:00:36;9.70;99.90
12708;DHT22;6418;50.824;4.718;2024-01-30T02:03:06;9.70;99.90
12708;DHT22;6418;50.824;4.718;2024-01-30T02:05:33;9.70;99.90
12708;DHT22;6418;50.824;4.718;2024-01-30T02:08:01;9.70;99.90
12708;DHT22;6418;50.824;4.718;2024-01-30T02:10:30;9.70;99.90
12708;DHT22;6418;50.824;4.718;2024-01-30T02:12:57;9.70;99.90
12708;DHT22;6418;50.824;4.718;2024-01-30T02:15:24;9.70;99.90
12708;DHT22;6418;50.824;4.718;2024-01-30T02:17:51;9.70;99.90
12708;DHT22;6418;50.824;4.718;2024-01-30T02:20:18;9.70;99.90
12708;DHT22;6418;50.824;4.718;2024-01-30T02:22:47;9.70;99.90
12708;DHT22;6418;50.824;4.718;2024-01-30T02:25:15;9.70;99.90
12708;DHT22;6418;50.824;4.718;2024-01-30T02:27:42;9.70;99.90
12708;DHT22;6418;50.824;4.718;2024-01-30T02:30:10;9.70;99.90
12708;DHT22;6418;50.824;4.718;2024-01-30T02:32:37;9.70;99.90
12708;DHT22;6418;50.824;4.718;2024-01-30T02:35:04;9.70;99.90
12708;DHT22;6418;50.824;4.718;2024-01-30T02:37:31;9.60;99.90
12708;DHT22;6418;50.824;4.718;2024-01-30T02:39:59;9.60;99.90
12708;DHT22;6418;50.824;4.718;2024-01-30T02:42:26;9.60;99.90
12708;DHT22;6418;50.824;4.718;2024-01-30T02:44:53;9.60;99.90
12708;DHT22;6418;50.824;4.718;2024-01-30T02:47:20;9.60;99.90
12708;DHT22;6418;50.824;4.718;2024-01-30T02:49:47;9.60;99.90
12708;DHT22;6418;50.824;4.718;2024-01-30T02:52:14;9.60;99.90
12708;DHT22;6418;50.824;4.718;2024-01-30T02:54:41;9.60;99.90
12708;DHT22;6418;50.824;4.718;2024-01-30T02:57:09;9.60;99.90
12708;DHT22;6418;50.824;4.718;2024-01-30T02:59:36;9.60;99.90
12708;DHT22;6418;50.824;4.718;2024-01-30T03:02:03;9.60;99.90
12708;DHT22;6418;50.824;4.718;2024-01-30T03:04:30;9.60;99.90
12708;DHT22;6418;50.824;4.718;2024-01-30T03:06:57;9.60;99.90
12708;DHT22;6418;50.824;4.718;2024-01-30T03:09:24;9.60;99.90
12708;DHT22;6418;50.824;4.718;2024-01-30T03:11:51;9.70;99.90
12708;DHT22;6418;50.824;4.718;2024-01-30T03:14:19;9.70;99.90
12708;DHT22;6418;50.824;4.718;2024-01-30T03:16:46;9.70;99.90
12708;DHT22;6418;50.824;4.718;2024-01-30T03:19:13;9.70;99.90
12708;DHT22;6418;50.824;4.718;2024-01-30T03:21:40;9.70;99.90
12708;DHT22;6418;50.824;4.718;2024-01-30T03:24:07;9.70;99.90
12708;DHT22;6418;50.824;4.718;2024-01-30T03:26:34;9.70;99.90
12708;DHT22;6418;50.824;4.718;2024-01-30T03:29:01;9.70;99.90
12708;DHT22;6418;50.824;4.718;2024-01-30T03:31:29;9.70;99.90
12708;DHT22;6418;50.824;4.718;2024-01-30T03:33:56;9.70;99.90
12708;DHT22;6418;50.824;4.718;2024-01-30T03:36:23;9.70;99.90
12708;DHT22;6418;50.824;4.718;2024-01-30T03:38:50;9.70;99.90
12708;DHT22;6418;50.824;4.718;2024-01-30T03:41:17;9.70;99.90
12708;DHT22;6418;50.824;4.718;2024-01-30T03:43:44;9.80;99.90
12708;DHT22;6418;50.824;4.718;2024-01-30T03:46:12;9.70;99.90
12708;DHT22;6418;50.824;4.718;2024-01-30T03:48:40;9.50;99.90
12708;DHT22;6418;50.824;4.718;2024-01-30T03:51:07;9.70;99.90
12708;DHT22;6418;50.824;4.718;2024-01-30T03:53:34;9.80;99.90
12708;DHT22;6418;50.824;4.718;2024-01-30T03:56:01;9.80;99.90
12708;DHT22;6418;50.824;4.718;2024-01-30T03:58:28;9.80;99.90
12708;DHT22;6418;50.824;4.718;2024-01-30T04:00:55;9.80;99.90
12708;DHT22;6418;50.824;4.718;2024-01-30T04:03:22;9.80;99.90
12708;DHT22;6418;50.824;4.718;2024-01-30T04:05:51;9.80;99.90
12708;DHT22;6418;50.824;4.718;2024-01-30T04:08:18;9.80;99.90
12708;DHT22;6418;50.824;4.718;2024-01-30T04:10:46;9.80;99.90
12708;DHT22;6418;50.824;4.718;2024-01-30T04:13:13;9.80;99.90
12708;DHT22;6418;50.824;4.718;2024-01-30T04:15:40;9.90;99.90
12708;DHT22;6418;50.824;4.718;2024-01-30T04:18:07;9.90;99.90
12708;DHT22;6418;50.824;4.718;2024-01-30T04:20:34;9.90;99.90
12708;DHT22;6418;50.824;4.718;2024-01-30T04:23:02;9.90;99.90
12708;DHT22;6418;50.824;4.718;2024-01-30T04:25:29;9.90;99.90
12708;DHT22;6418;50.824;4.718;2024-01-30T04:27:56;9.90;99.90
12708;DHT22;6418;50.824;4.718;2024-01-30T04:30:23;9.90;99.90
12708;DHT22;6418;50.824;4.718;2024-01-30T04:32:50;9.90;99.90
12708;DHT22;6418;50.824;4.718;2024-01-30T04:35:17;9.90;99.90
12708;DHT22;6418;50.824;4.718;2024-01-30T04:37:46;9.90;99.90
12708;DHT22;6418;50.824;4.718;2024-01-30T04:40:14;9.90;99.90
12708;DHT22;6418;50.824;4.718;2024-01-30T04:42:41;9.90;99.90
12708;DHT22;6418;50.824;4.718;2024-01-30T04:45:09;9.90;99.90
12708;DHT22;6418;50.824;4.718;2024-01-30T04:47:36;9.90;99.90
12708;DHT22;6418;50.824;4.718;2024-01-30T04:50:06;9.90;99.90
12708;DHT22;6418;50.824;4.718;2024-01-30T04:52:34;9.90;99.90
12708;DHT22;6418;50.824;4.718;2024-01-30T04:55:01;9.90;99.90
12708;DHT22;6418;50.824;4.718;2024-01-30T04:57:29;9.90;99.90
12708;DHT22;6418;50.824;4.718;2024-01-30T04:59:57;9.90;99.90
12708;DHT22;6418;50.824;4.718;2024-01-30T05:02:24;9.90;99.90
12708;DHT22;6418;50.824;4.718;2024-01-30T05:04:51;9.90;99.90
12708;DHT22;6418;50.824;4.718;2024-01-30T05:07:18;9.90;99.90
12708;DHT22;6418;50.824;4.718;2024-01-30T05:09:45;9.90;99.90
12708;DHT22;6418;50.824;4.718;2024-01-30T05:12:12;9.90;99.90
12708;DHT22;6418;50.824;4.718;2024-01-30T05:14:40;9.90;99.90
12708;DHT22;6418;50.824;4.718;2024-01-30T05:17:07;9.90;99.90
12708;DHT22;6418;50.824;4.718;2024-01-30T05:19:35;9.90;99.90
12708;DHT22;6418;50.824;4.718;2024-01-30T05:22:03;9.90;99.90
12708;DHT22;6418;50.824;4.718;2024-01-30T05:24:29;9.90;99.90
12708;DHT22;6418;50.824;4.718;2024-01-30T05:26:57;9.90;99.90
12708;DHT22;6418;50.824;4.718;2024-01-30T05:29:24;9.90;99.90
12708;DHT22;6418;50.824;4.718;2024-01-30T05:31:53;9.90;99.90
12708;DHT22;6418;50.824;4.718;2024-01-30T05:34:19;9.90;99.90
12708;DHT22;6418;50.824;4.718;2024-01-30T05:36:46;9.90;99.90
12708;DHT22;6418;50.824;4.718;2024-01-30T05:39:13;9.80;99.90
12708;DHT22;6418;50.824;4.718;2024-01-30T05:41:41;9.80;99.90
12708;DHT22;6418;50.824;4.718;2024-01-30T05:44:08;9.90;99.90
12708;DHT22;6418;50.824;4.718;2024-01-30T05:46:35;9.90;99.90
12708;DHT22;6418;50.824;4.718;2024-01-30T05:49:04;9.90;99.90
12708;DHT22;6418;50.824;4.718;2024-01-30T05:51:31;9.90;99.90
12708;DHT22;6418;50.824;4.718;2024-01-30T05:53:58;9.90;99.90
12708;DHT22;6418;50.824;4.718;2024-01-30T05:56:25;9.90;99.90
12708;DHT22;6418;50.824;4.718;2024-01-30T05:58:52;9.90;99.90
12708;DHT22;6418;50.824;4.718;2024-01-30T06:01:19;9.90;99.90
12708;DHT22;6418;50.824;4.718;2024-01-30T06:03:46;9.80;99.90
12708;DHT22;6418;50.824;4.718;2024-01-30T06:06:14;9.80;99.90
12708;DHT22;6418;50.824;4.718;2024-01-30T06:08:41;9.90;99.90
12708;DHT22;6418;50.824;4.718;2024-01-30T06:11:10;9.80;99.90
12708;DHT22;6418;50.824;4.718;2024-01-30T06:13:37;9.80;99.90
12708;DHT22;6418;50.824;4.718;2024-01-30T06:16:04;9.80;99.90
12708;DHT22;6418;50.824;4.718;2024-01-30T06:18:32;9.90;99.90
12708;DHT22;6418;50.824;4.718;2024-01-30T06:20:59;9.80;99.90
12708;DHT22;6418;50.824;4.718;2024-01-30T06:23:27;9.80;99.90
12708;DHT22;6418;50.824;4.718;2024-01-30T06:25:54;9.80;99.90
12708;DHT22;6418;50.824;4.718;2024-01-30T06:28:21;9.80;99.90
12708;DHT22;6418;50.824;4.718;2024-01-30T06:30:48;9.90;99.90
12708;DHT22;6418;50.824;4.718;2024-01-30T06:33:15;9.80;99.90
12708;DHT22;6418;50.824;4.718;2024-01-30T06:35:42;9.80;99.90
12708;DHT22;6418;50.824;4.718;2024-01-30T06:38:11;9.90;99.90
12708;DHT22;6418;50.824;4.718;2024-01-30T06:40:40;9.90;99.90
12708;DHT22;6418;50.824;4.718;2024-01-30T06:43:08;9.90;99.90
12708;DHT22;6418;50.824;4.718;2024-01-30T06:45:35;9.80;99.90
12708;DHT22;6418;50.824;4.718;2024-01-30T06:48:02;9.80;99.90
12708;DHT22;6418;50.824;4.718;2024-01-30T06:50:29;9.90;99.90
12708;DHT22;6418;50.824;4.718;2024-01-30T06:52:56;9.80;99.90
12708;DHT22;6418;50.824;4.718;2024-01-30T06:55:23;9.80;99.90
12708;DHT22;6418;50.824;4.718;2024-01-30T06:57:51;9.80;99.90
12708;DHT22;6418;50.824;4.718;2024-01-30T07:00:18;9.80;99.90
12708;DHT22;6418;50.824;4.718;2024-01-30T07:02:47;9.80;99.90
12708;DHT22;6418;50.824;4.718;2024-01-30T07:05:14;9.80;99.90
12708;DHT22;6418;50.824;4.718;2024-01-30T07:07:41;9.80;99.90
12708;DHT22;6418;50.824;4.718;2024-01-30T07:10:08;9.90;99.90
12708;DHT22;6418;50.824;4.718;2024-01-30T07:12:35;9.90;99.90
12708;DHT22;6418;50.824;4.718;2024-01-30T07:15:04;9.90;99.90
12708;DHT22;6418;50.824;4.718;2024-01-30T07:17:33;9.90;99.90
12708;DHT22;6418;50.824;4.718;2024-01-30T07:20:00;9.90;99.90
12708;DHT22;6418;50.824;4.718;2024-01-30T07:22:29;9.90;99.90
12708;DHT22;6418;50.824;4.718;2024-01-30T07:24:56;9.90;99.90
12708;DHT22;6418;50.824;4.718;2024-01-30T07:27:23;9.90;99.90
12708;DHT22;6418;50.824;4.718;2024-01-30T07:29:50;9.90;99.90
12708;DHT22;6418;50.824;4.718;2024-01-30T07:32:18;9.90;99.90
12708;DHT22;6418;50.824;4.718;2024-01-30T07:34:45;9.90;99.90
12708;DHT22;6418;50.824;4.718;2024-01-30T07:37:12;9.90;99.90
12708;DHT22;6418;50.824;4.718;2024-01-30T07:39:41;9.90;99.90
12708;DHT22;6418;50.824;4.718;2024-01-30T07:42:08;9.90;99.90
12708;DHT22;6418;50.824;4.718;2024-01-30T07:44:35;9.90;99.90
12708;DHT22;6418;50.824;4.718;2024-01-30T07:47:02;9.80;99.90
12708;DHT22;6418;50.824;4.718;2024-01-30T07:49:31;9.80;99.90
12708;DHT22;6418;50.824;4.718;2024-01-30T07:52:00;9.80;99.90
12708;DHT22;6418;50.824;4.718;2024-01-30T07:54:27;9.90;99.90
12708;DHT22;6418;50.824;4.718;2024-01-30T07:56:58;9.90;99.90
12708;DHT22;6418;50.824;4.718;2024-01-30T07:59:25;9.90;99.90
12708;DHT22;6418;50.824;4.718;2024-01-30T08:01:52;9.90;99.90
12708;DHT22;6418;50.824;4.718;2024-01-30T08:04:19;9.90;99.90
12708;DHT22;6418;50.824;4.718;2024-01-30T08:06:48;10.00;99.90
12708;DHT22;6418;50.824;4.718;2024-01-30T08:09:15;10.00;99.90
12708;DHT22;6418;50.824;4.718;2024-01-30T08:11:41;10.00;99.90
12708;DHT22;6418;50.824;4.718;2024-01-30T08:14:08;10.10;99.90
12708;DHT22;6418;50.824;4.718;2024-01-30T08:16:35;10.10;99.90
12708;DHT22;6418;50.824;4.718;2024-01-30T08:19:03;10.10;99.90
12708;DHT22;6418;50.824;4.718;2024-01-30T08:21:29;10.20;99.90
12708;DHT22;6418;50.824;4.718;2024-01-30T08:24:03;10.20;99.90
12708;DHT22;6418;50.824;4.718;2024-01-30T08:26:30;10.20;99.90
12708;DHT22;6418;50.824;4.718;2024-01-30T08:28:57;10.20;99.90
12708;DHT22;6418;50.824;4.718;2024-01-30T08:31:24;10.30;99.90
12708;DHT22;6418;50.824;4.718;2024-01-30T08:33:51;10.30;99.90
12708;DHT22;6418;50.824;4.718;2024-01-30T08:36:18;10.30;99.90
12708;DHT22;6418;50.824;4.718;2024-01-30T08:38:45;10.30;99.90
12708;DHT22;6418;50.824;4.718;2024-01-30T08:41:13;10.40;99.90
12708;DHT22;6418;50.824;4.718;2024-01-30T08:43:40;10.40;99.90
12708;DHT22;6418;50.824;4.718;2024-01-30T08:46:07;10.50;99.90
12708;DHT22;6418;50.824;4.718;2024-01-30T08:48:36;10.50;99.90
12708;DHT22;6418;50.824;4.718;2024-01-30T08:51:03;10.50;99.90
12708;DHT22;6418;50.824;4.718;2024-01-30T08:53:34;10.50;99.90
12708;DHT22;6418;50.824;4.718;2024-01-30T08:56:01;10.50;99.90
12708;DHT22;6418;50.824;4.718;2024-01-30T08:58:29;10.60;99.90
12708;DHT22;6418;50.824;4.718;2024-01-30T09:00:56;10.60;99.90
12708;DHT22;6418;50.824;4.718;2024-01-30T09:03:23;10.60;99.90
12708;DHT22;6418;50.824;4.718;2024-01-30T09:05:50;10.60;99.90
12708;DHT22;6418;50.824;4.718;2024-01-30T09:08:17;10.70;99.90
12708;DHT22;6418;50.824;4.718;2024-01-30T09:10:44;10.70;99.90
12708;DHT22;6418;50.824;4.718;2024-01-30T09:13:11;10.80;99.90
12708;DHT22;6418;50.824;4.718;2024-01-30T09:15:40;10.80;99.90
12708;DHT22;6418;50.824;4.718;2024-01-30T09:18:07;10.90;99.90
12708;DHT22;6418;50.824;4.718;2024-01-30T09:20:34;10.90;99.90
12708;DHT22;6418;50.824;4.718;2024-01-30T09:23:01;10.90;99.90
12708;DHT22;6418;50.824;4.718;2024-01-30T09:25:28;11.00;99.90
12708;DHT22;6418;50.824;4.718;2024-01-30T09:27:55;11.00;99.90
12708;DHT22;6418;50.824;4.718;2024-01-30T09:30:22;11.00;99.90
12708;DHT22;6418;50.824;4.718;2024-01-30T09:32:50;11.10;99.90
12708;DHT22;6418;50.824;4.718;2024-01-30T09:35:17;11.10;99.90
12708;DHT22;6418;50.824;4.718;2024-01-30T09:37:44;11.10;99.90
12708;DHT22;6418;50.824;4.718;2024-01-30T09:40:11;11.10;99.90
12708;DHT22;6418;50.824;4.718;2024-01-30T09:42:38;11.10;99.90
12708;DHT22;6418;50.824;4.718;2024-01-30T09:45:06;11.20;99.90
12708;DHT22;6418;50.824;4.718;2024-01-30T09:47:39;11.10;99.90
12708;DHT22;6418;50.824;4.718;2024-01-30T09:50:09;11.10;99.90
12708;DHT22;6418;50.824;4.718;2024-01-30T09:52:36;11.20;99.90
12708;DHT22;6418;50.824;4.718;2024-01-30T09:55:04;11.10;99.90
12708;DHT22;6418;50.824;4.718;2024-01-30T09:57:31;11.10;99.90
12708;DHT22;6418;50.824;4.718;2024-01-30T09:59:58;11.20;99.90
12708;DHT22;6418;50.824;4.718;2024-01-30T10:02:25;11.20;99.90
12708;DHT22;6418;50.824;4.718;2024-01-30T10:04:52;11.20;99.90
12708;DHT22;6418;50.824;4.718;2024-01-30T10:07:21;11.10;99.90
12708;DHT22;6418;50.824;4.718;2024-01-30T10:09:48;11.20;99.90
12708;DHT22;6418;50.824;4.718;2024-01-30T10:12:16;11.20;99.90
12708;DHT22;6418;50.824;4.718;2024-01-30T10:14:43;11.20;99.90
12708;DHT22;6418;50.824;4.718;2024-01-30T10:17:11;11.20;99.90
12708;DHT22;6418;50.824;4.718;2024-01-30T10:19:39;11.20;99.90
12708;DHT22;6418;50.824;4.718;2024-01-30T10:22:06;11.20;99.90
12708;DHT22;6418;50.824;4.718;2024-01-30T10:24:34;11.20;99.90
12708;DHT22;6418;50.824;4.718;2024-01-30T10:27:01;11.20;99.90
12708;DHT22;6418;50.824;4.718;2024-01-30T10:29:29;11.20;99.90
12708;DHT22;6418;50.824;4.718;2024-01-30T10:31:59;11.20;99.90
12708;DHT22;6418;50.824;4.718;2024-01-30T10:34:26;11.20;99.90
12708;DHT22;6418;50.824;4.718;2024-01-30T10:37:07;11.20;99.90
12708;DHT22;6418;50.824;4.718;2024-01-30T10:39:39;11.20;99.90
12708;DHT22;6418;50.824;4.718;2024-01-30T10:42:07;11.20;99.90
12708;DHT22;6418;50.824;4.718;2024-01-30T10:44:44;11.20;99.90
12708;DHT22;6418;50.824;4.718;2024-01-30T10:47:13;11.30;99.90
12708;DHT22;6418;50.824;4.718;2024-01-30T10:49:43;11.30;99.90
12708;DHT22;6418;50.824;4.718;2024-01-30T10:52:13;11.40;99.90
12708;DHT22;6418;50.824;4.718;2024-01-30T10:54:44;11.40;99.90
12708;DHT22;6418;50.824;4.718;2024-01-30T10:57:12;11.40;99.90
12708;DHT22;6418;50.824;4.718;2024-01-30T10:59:40;11.50;99.90
12708;DHT22;6418;50.824;4.718;2024-01-30T11:02:09;11.50;99.90
12708;DHT22;6418;50.824;4.718;2024-01-30T11:04:36;11.50;99.90
12708;DHT22;6418;50.824;4.718;2024-01-30T11:07:14;11.60;99.90
12708;DHT22;6418;50.824;4.718;2024-01-30T11:09:47;11.50;99.90
12708;DHT22;6418;50.824;4.718;2024-01-30T11:12:14;11.50;99.90
12708;DHT22;6418;50.824;4.718;2024-01-30T11:14:41;11.50;99.90
12708;DHT22;6418;50.824;4.718;2024-01-30T11:17:10;11.50;99.90
12708;DHT22;6418;50.824;4.718;2024-01-30T11:19:38;11.50;99.90
12708;DHT22;6418;50.824;4.718;2024-01-30T11:22:06;11.50;99.90
12708;DHT22;6418;50.824;4.718;2024-01-30T11:24:39;11.40;99.90
12708;DHT22;6418;50.824;4.718;2024-01-30T11:27:09;11.40;99.90
12708;DHT22;6418;50.824;4.718;2024-01-30T11:29:36;11.40;99.90
12708;DHT22;6418;50.824;4.718;2024-01-30T11:32:04;11.40;99.90
12708;DHT22;6418;50.824;4.718;2024-01-30T11:34:33;11.40;99.90
12708;DHT22;6418;50.824;4.718;2024-01-30T11:37:04;11.40;99.90
12708;DHT22;6418;50.824;4.718;2024-01-30T11:39:36;11.40;99.90
12708;DHT22;6418;50.824;4.718;2024-01-30T11:42:06;11.40;99.90
12708;DHT22;6418;50.824;4.718;2024-01-30T11:44:35;11.40;99.90
12708;DHT22;6418;50.824;4.718;2024-01-30T11:47:03;11.40;99.90
12708;DHT22;6418;50.824;4.718;2024-01-30T11:49:30;11.40;99.90
12708;DHT22;6418;50.824;4.718;2024-01-30T11:51:57;11.30;99.90
12708;DHT22;6418;50.824;4.718;2024-01-30T11:54:24;11.30;99.90
12708;DHT22;6418;50.824;4.718;2024-01-30T11:56:51;11.40;99.90
12708;DHT22;6418;50.824;4.718;2024-01-30T11:59:18;11.40;99.90
12708;DHT22;6418;50.824;4.718;2024-01-30T12:01:46;11.40;99.90
12708;DHT22;6418;50.824;4.718;2024-01-30T12:04:13;11.40;99.90
12708;DHT22;6418;50.824;4.718;2024-01-30T12:06:40;11.40;99.90
12708;DHT22;6418;50.824;4.718;2024-01-30T12:09:08;11.50;99.90
12708;DHT22;6418;50.824;4.718;2024-01-30T12:11:44;11.40;99.90
12708;DHT22;6418;50.824;4.718;2024-01-30T12:14:12;11.40;99.90
12708;DHT22;6418;50.824;4.718;2024-01-30T12:16:39;11.40;99.90
12708;DHT22;6418;50.824;4.718;2024-01-30T12:19:08;11.40;99.90
12708;DHT22;6418;50.824;4.718;2024-01-30T12:21:35;11.40;99.90
12708;DHT22;6418;50.824;4.718;2024-01-30T12:24:03;11.40;99.90
12708;DHT22;6418;50.824;4.718;2024-01-30T12:26:32;11.40;99.90
12708;DHT22;6418;50.824;4.718;2024-01-30T12:28:59;11.30;99.90
12708;DHT22;6418;50.824;4.718;2024-01-30T12:31:27;11.30;99.90
12708;DHT22;6418;50.824;4.718;2024-01-30T12:33:54;11.30;99.90
12708;DHT22;6418;50.824;4.718;2024-01-30T12:36:23;11.20;99.90
12708;DHT22;6418;50.824;4.718;2024-01-30T12:38:50;11.20;99.90
12708;DHT22;6418;50.824;4.718;2024-01-30T12:41:17;11.10;99.90
12708;DHT22;6418;50.824;4.718;2024-01-30T12:43:45;11.10;99.90
12708;DHT22;6418;50.824;4.718;2024-01-30T12:46:13;11.10;99.90
12708;DHT22;6418;50.824;4.718;2024-01-30T12:48:40;11.10;99.90
12708;DHT22;6418;50.824;4.718;2024-01-30T12:51:07;11.00;99.90
12708;DHT22;6418;50.824;4.718;2024-01-30T12:53:35;11.00;99.90
12708;DHT22;6418;50.824;4.718;2024-01-30T12:56:03;11.00;99.90
12708;DHT22;6418;50.824;4.718;2024-01-30T12:58:30;11.00;99.90
12708;DHT22;6418;50.824;4.718;2024-01-30T13:00:57;11.00;99.90
12708;DHT22;6418;50.824;4.718;2024-01-30T13:03:24;10.90;99.90
12708;DHT22;6418;50.824;4.718;2024-01-30T13:05:51;10.90;99.90
12708;DHT22;6418;50.824;4.718;2024-01-30T13:08:18;10.90;99.90
12708;DHT22;6418;50.824;4.718;2024-01-30T13:10:46;10.90;99.90
12708;DHT22;6418;50.824;4.718;2024-01-30T13:13:13;10.80;99.90
12708;DHT22;6418;50.824;4.718;2024-01-30T13:15:40;10.80;99.90
12708;DHT22;6418;50.824;4.718;2024-01-30T13:18:07;10.80;99.90
12708;DHT22;6418;50.824;4.718;2024-01-30T13:20:34;10.70;99.90
12708;DHT22;6418;50.824;4.718;2024-01-30T13:23:01;10.60;99.90
12708;DHT22;6418;50.824;4.718;2024-01-30T13:25:28;10.60;99.90
12708;DHT22;6418;50.824;4.718;2024-01-30T13:27:56;10.50;99.90
12708;DHT22;6418;50.824;4.718;2024-01-30T13:30:23;10.50;99.90
12708;DHT22;6418;50.824;4.718;2024-01-30T13:32:50;10.40;99.90
12708;DHT22;6418;50.824;4.718;2024-01-30T13:35:17;10.40;99.90
12708;DHT22;6418;50.824;4.718;2024-01-30T13:37:44;10.40;99.90
12708;DHT22;6418;50.824;4.718;2024-01-30T13:40:13;10.40;99.90
12708;DHT22;6418;50.824;4.718;2024-01-30T13:42:42;10.50;99.90
12708;DHT22;6418;50.824;4.718;2024-01-30T13:45:10;10.50;99.90
12708;DHT22;6418;50.824;4.718;2024-01-30T13:47:37;10.50;99.90
12708;DHT22;6418;50.824;4.718;2024-01-30T13:50:05;10.60;99.90
12708;DHT22;6418;50.824;4.718;2024-01-30T13:52:32;10.60;99.90
12708;DHT22;6418;50.824;4.718;2024-01-30T13:54:58;10.60;99.90
12708;DHT22;6418;50.824;4.718;2024-01-30T13:57:25;10.60;99.90
12708;DHT22;6418;50.824;4.718;2024-01-30T13:59:52;10.70;99.90
12708;DHT22;6418;50.824;4.718;2024-01-30T14:02:21;10.70;99.90
12708;DHT22;6418;50.824;4.718;2024-01-30T14:04:48;10.70;99.90
12708;DHT22;6418;50.824;4.718;2024-01-30T14:07:15;10.70;99.90
12708;DHT22;6418;50.824;4.718;2024-01-30T14:09:43;10.70;99.90
12708;DHT22;6418;50.824;4.718;2024-01-30T14:12:11;10.70;99.90
12708;DHT22;6418;50.824;4.718;2024-01-30T14:14:38;10.70;99.90
12708;DHT22;6418;50.824;4.718;2024-01-30T14:17:05;10.70;99.90
12708;DHT22;6418;50.824;4.718;2024-01-30T14:19:34;10.60;99.90
12708;DHT22;6418;50.824;4.718;2024-01-30T14:22:01;10.60;99.90
12708;DHT22;6418;50.824;4.718;2024-01-30T14:24:28;10.60;99.90
12708;DHT22;6418;50.824;4.718;2024-01-30T14:26:55;10.50;99.90
12708;DHT22;6418;50.824;4.718;2024-01-30T14:29:22;10.60;99.90
12708;DHT22;6418;50.824;4.718;2024-01-30T14:31:49;10.60;99.90
12708;DHT22;6418;50.824;4.718;2024-01-30T14:34:16;10.50;99.90
12708;DHT22;6418;50.824;4.718;2024-01-30T14:36:45;10.50;99.90
12708;DHT22;6418;50.824;4.718;2024-01-30T14:39:12;10.50;99.90
12708;DHT22;6418;50.824;4.718;2024-01-30T14:41:40;10.60;99.90
12708;DHT22;6418;50.824;4.718;2024-01-30T14:44:07;10.50;99.90
12708;DHT22;6418;50.824;4.718;2024-01-30T14:46:35;10.50;99.90
12708;DHT22;6418;50.824;4.718;2024-01-30T14:49:03;10.50;99.90
12708;DHT22;6418;50.824;4.718;2024-01-30T14:51:32;10.50;99.90
12708;DHT22;6418;50.824;4.718;2024-01-30T14:54:00;10.50;99.90
12708;DHT22;6418;50.824;4.718;2024-01-30T14:56:28;10.60;99.90
12708;DHT22;6418;50.824;4.718;2024-01-30T14:58:55;10.50;99.90
12708;DHT22;6418;50.824;4.718;2024-01-30T15:01:22;10.50;99.90
12708;DHT22;6418;50.824;4.718;2024-01-30T15:03:49;10.50;99.90
12708;DHT22;6418;50.824;4.718;2024-01-30T15:06:17;10.50;99.90
12708;DHT22;6418;50.824;4.718;2024-01-30T15:08:44;10.40;99.90
12708;DHT22;6418;50.824;4.718;2024-01-30T15:11:13;10.40;99.90
12708;DHT22;6418;50.824;4.718;2024-01-30T15:13:39;10.40;99.90
12708;DHT22;6418;50.824;4.718;2024-01-30T15:16:06;10.40;99.90
12708;DHT22;6418;50.824;4.718;2024-01-30T15:18:34;10.40;99.90
12708;DHT22;6418;50.824;4.718;2024-01-30T15:21:01;10.30;99.90
12708;DHT22;6418;50.824;4.718;2024-01-30T15:23:28;10.30;99.90
12708;DHT22;6418;50.824;4.718;2024-01-30T15:25:55;10.30;99.90
12708;DHT22;6418;50.824;4.718;2024-01-30T15:28:34;10.20;99.90
12708;DHT22;6418;50.824;4.718;2024-01-30T15:31:02;10.30;99.90
12708;DHT22;6418;50.824;4.718;2024-01-30T15:33:29;10.20;99.90
12708;DHT22;6418;50.824;4.718;2024-01-30T15:35:56;10.20;99.90
12708;DHT22;6418;50.824;4.718;2024-01-30T15:38:23;10.20;99.90
12708;DHT22;6418;50.824;4.718;2024-01-30T15:40:50;10.20;99.90
12708;DHT22;6418;50.824;4.718;2024-01-30T15:43:17;10.20;99.90
12708;DHT22;6418;50.824;4.718;2024-01-30T15:45:45;10.10;99.90
12708;DHT22;6418;50.824;4.718;2024-01-30T15:48:12;10.10;99.90
12708;DHT22;6418;50.824;4.718;2024-01-30T15:50:39;10.10;99.90
12708;DHT22;6418;50.824;4.718;2024-01-30T15:53:06;10.10;99.90
12708;DHT22;6418;50.824;4.718;2024-01-30T15:55:33;10.00;99.90